Terminal Aerodrome Forecast
Issued by NWS Jackson, MS

Home | Current Version | Previous Version | Text Only | Print | Product List | Glossary On
Versions: 1 2 3 4 5 6 7 8 9 10 11 12
542
FTUS44 KJAN 291153
TAFGWO
TAF
KGWO 291153Z 2912/3012 12004KT P6SM SCT015
     FM291400 14007KT P6SM BKN015
     FM291600 17014G23KT P6SM SCT025 SCT045
     FM300600 18015G24KT P6SM BKN025=

USA.gov is the U.S. government's official web portal to all federal, state and local government web resources and services.